Time;durP1;ratioP1;P1;durP2;ratioP2;P2;SDS_P1;SDS_P2;PMS_P1;PMS_P2;Temp;Humidity;BMP_temperature;BMP_pressure;BME280_temperature;BME280_humidity;BME280_pressure;Samples;Min_cycle;Max_cycle;Signal;HPM_P1;HPM_P2
2023/01/07 00:02:09;;;;;;;7.40;4.70;;;;;;;21.03;52.68;100919.06;20843239;28;20049;-75
2023/01/07 00:12:09;;;;;;;7.95;5.10;;;;;;;21.02;53.18;100921.75;20864731;28;20158;-74
2023/01/07 00:22:09;;;;;;;8.15;5.15;;;;;;;21.02;53.15;100932.28;20864916;28;20072;-75
2023/01/07 00:32:10;;;;;;;7.18;4.75;;;;;;;20.98;53.38;100936.09;20872022;28;20049;-75
2023/01/07 00:52:30;;;;;;;6.28;4.72;;;;;;;20.97;53.16;100934.41;20866130;28;20407;-79
2023/01/07 01:02:31;;;;;;;8.35;5.00;;;;;;;20.95;53.40;100950.31;20844215;28;20056;-76
2023/01/07 01:12:34;;;;;;;7.50;4.18;;;;;;;20.95;53.43;100955.56;20868614;28;20045;-75
2023/01/07 01:22:34;;;;;;;7.72;4.50;;;;;;;20.94;53.35;100944.19;20858119;28;20571;-76
2023/01/07 01:32:35;;;;;;;6.22;4.38;;;;;;;20.94;53.74;100935.47;20848685;28;20149;-77
2023/01/07 01:42:35;;;;;;;6.18;4.32;;;;;;;20.93;53.59;100939.91;20860800;28;20063;-76
2023/01/07 01:52:45;;;;;;;6.15;4.40;;;;;;;20.90;53.31;100934.81;20835888;28;20056;-75
2023/01/07 02:02:51;;;;;;;5.70;4.05;;;;;;;20.89;53.38;100921.78;20834517;28;20513;-80
2023/01/07 02:13:24;;;;;;;6.60;4.40;;;;;;;20.86;53.69;100906.16;20852499;28;20037;-76
2023/01/07 02:23:56;;;;;;;5.82;4.10;;;;;;;20.85;53.65;100900.09;20822221;28;22006;-75
2023/01/07 02:34:22;;;;;;;5.95;4.03;;;;;;;20.85;53.19;100891.31;20843014;28;20500;-76
2023/01/07 02:44:43;;;;;;;5.90;4.13;;;;;;;20.84;53.62;100898.38;20847583;28;20888;-75
2023/01/07 02:54:49;;;;;;;7.10;4.47;;;;;;;20.82;53.28;100896.81;20855600;28;20060;-75
2023/01/07 03:04:49;;;;;;;5.78;4.18;;;;;;;20.81;53.73;100897.75;20829137;28;20033;-77
2023/01/07 03:15:01;;;;;;;6.35;4.07;;;;;;;20.77;53.69;100892.69;20848106;28;20040;-78
2023/01/07 03:25:04;;;;;;;5.03;3.40;;;;;;;20.77;53.20;100891.84;20858724;28;20688;-75
2023/01/07 03:35:05;;;;;;;8.27;4.22;;;;;;;20.76;53.26;100890.16;20854441;28;20115;-75
2023/01/07 03:45:12;;;;;;;5.93;4.15;;;;;;;20.75;53.44;100888.47;20833730;28;20041;-76
2023/01/07 03:55:13;;;;;;;5.38;3.72;;;;;;;20.72;53.15;100873.72;20842835;28;20052;-76
2023/01/07 04:05:13;;;;;;;6.60;4.03;;;;;;;20.71;53.31;100871.19;20847819;28;20495;-76
2023/01/07 04:15:14;;;;;;;5.43;3.47;;;;;;;20.69;53.49;100879.19;20845342;28;20044;-76
2023/01/07 04:25:14;;;;;;;4.32;3.38;;;;;;;20.68;53.76;100881.91;20842657;28;20036;-76
2023/01/07 04:35:15;;;;;;;5.40;3.75;;;;;;;20.67;53.25;100885.50;20836967;28;20496;-76
2023/01/07 04:45:15;;;;;;;5.68;3.85;;;;;;;20.66;53.56;100887.28;20843961;28;20033;-76
2023/01/07 04:55:17;;;;;;;5.10;3.50;;;;;;;20.63;53.25;100879.59;20852654;28;20075;-78
2023/01/07 05:05:19;;;;;;;5.20;3.85;;;;;;;20.61;53.24;100884.13;20861003;28;20570;-78
2023/01/07 05:15:19;;;;;;;6.38;3.65;;;;;;;20.66;53.49;100892.53;20866017;28;20037;-77
2023/01/07 05:25:21;;;;;;;4.72;3.70;;;;;;;20.73;53.46;100890.38;20863426;28;20047;-77
2023/01/07 05:35:22;;;;;;;5.03;3.75;;;;;;;20.81;53.22;100887.22;20851644;28;20052;-75
2023/01/07 05:45:22;;;;;;;7.13;4.10;;;;;;;20.85;53.26;100897.44;20832018;28;20128;-76
2023/01/07 05:55:23;;;;;;;5.55;4.10;;;;;;;20.91;52.96;100894.41;20860174;28;24855;-77
2023/01/07 06:05:24;;;;;;;7.43;3.70;;;;;;;20.98;54.16;100886.06;20836060;28;20066;-79
2023/01/07 06:15:25;;;;;;;5.57;3.92;;;;;;;21.04;53.76;100899.66;20846303;28;20091;-76
2023/01/07 06:25:25;;;;;;;5.72;3.60;;;;;;;21.11;53.43;100895.63;20844355;28;20525;-81
2023/01/07 06:35:27;;;;;;;4.82;3.67;;;;;;;21.16;53.14;100897.97;20835150;28;20059;-83
2023/01/07 06:45:28;;;;;;;5.43;3.80;;;;;;;21.21;53.36;100897.66;20864667;28;20044;-77
2023/01/07 06:55:28;;;;;;;4.93;3.75;;;;;;;21.25;53.05;100904.38;20844437;28;20045;-79
2023/01/07 07:05:28;;;;;;;6.97;3.90;;;;;;;21.32;52.79;100902.19;20835073;28;20053;-75
2023/01/07 07:15:29;;;;;;;6.90;3.85;;;;;;;21.38;52.50;100917.56;20846059;28;20040;-74
2023/01/07 07:25:30;;;;;;;9.50;4.13;;;;;;;21.47;53.32;100910.78;20816106;28;20091;-74
2023/01/07 07:35:32;;;;;;;6.32;4.03;;;;;;;21.52;53.87;100922.69;20846550;28;20392;-80
2023/01/07 07:45:32;;;;;;;5.53;3.90;;;;;;;21.55;53.46;100930.38;20816984;28;20037;-73
2023/01/07 07:55:33;;;;;;;4.88;3.50;;;;;;;21.62;53.29;100940.50;20739196;28;20136;-78
2023/01/07 08:05:34;;;;;;;6.72;4.05;;;;;;;21.68;53.74;100929.53;20740379;28;20049;-80
2023/01/07 08:15:36;;;;;;;6.80;4.30;;;;;;;21.71;52.71;100935.44;20781058;28;20049;-80
2023/01/07 08:25:37;;;;;;;18.87;12.00;;;;;;;21.03;39.18;100923.47;20733242;28;20038;-80
2023/01/07 08:35:38;;;;;;;27.10;13.18;;;;;;;19.79;38.46;100919.13;20747091;28;20060;-85
2023/01/07 08:45:39;;;;;;;14.50;9.45;;;;;;;20.43;42.75;100917.75;20736402;28;20518;-85
2023/01/07 08:55:40;;;;;;;13.52;8.57;;;;;;;20.73;44.51;100904.38;20789438;28;20147;-80
2023/01/07 09:05:41;;;;;;;19.02;8.88;;;;;;;20.93;46.64;100899.53;20852644;28;20043;-78
2023/01/07 09:15:44;;;;;;;15.70;7.60;;;;;;;21.13;48.47;100908.72;20867664;28;20463;-78
2023/01/07 09:25:45;;;;;;;18.58;7.50;;;;;;;21.25;48.58;100915.78;20833679;28;20033;-78
2023/01/07 09:35:51;;;;;;;15.07;7.43;;;;;;;21.38;49.56;100897.31;20852249;28;20048;-79
2023/01/07 09:45:56;;;;;;;19.02;7.75;;;;;;;21.52;49.94;100887.59;20816574;28;20037;-85
2023/01/07 09:55:58;;;;;;;16.80;7.38;;;;;;;21.65;50.19;100880.53;20839572;28;20087;-83
2023/01/07 10:06:05;;;;;;;;;;;;;;;21.77;50.45;100865.63;20846238;28;20048;-82
2023/01/07 10:16:34;;;;;;;13.48;7.15;;;;;;;21.87;50.65;100860.53;20835734;28;19920;-81
2023/01/07 10:26:40;;;;;;;14.32;6.72;;;;;;;21.99;50.43;100848.25;20853451;28;20107;-81
2023/01/07 10:36:53;;;;;;;14.82;6.68;;;;;;;22.10;50.60;100834.28;20821426;28;20163;-77
2023/01/07 10:47:23;;;;;;;16.30;7.07;;;;;;;22.19;50.85;100825.66;20778907;28;20120;-80
2023/01/07 10:57:27;;;;;;;10.85;6.15;;;;;;;22.28;50.84;100811.78;20831401;28;20076;-77
2023/01/07 11:07:54;;;;;;;12.45;7.07;;;;;;;22.35;50.48;100799.81;20830670;28;20041;-78
2023/01/07 11:18:26;;;;;;;13.40;6.82;;;;;;;22.46;50.50;100793.75;20845834;28;20099;-77
2023/01/07 11:28:27;;;;;;;9.87;6.27;;;;;;;22.53;50.37;100786.19;20840384;28;20052;-79
2023/01/07 11:38:32;;;;;;;10.10;6.40;;;;;;;22.57;50.46;100769.19;20870928;28;20069;-77
2023/01/07 11:48:36;;;;;;;8.02;5.78;;;;;;;22.64;50.28;100770.38;20883426;28;20049;-76
2023/01/07 11:58:39;;;;;;;10.02;5.30;;;;;;;22.69;50.31;100751.53;20867107;28;20138;-75
2023/01/07 12:08:50;;;;;;;14.02;6.43;;;;;;;22.35;37.58;100728.56;20870182;28;20047;-77
2023/01/07 12:19:23;;;;;;;12.40;6.65;;;;;;;22.52;47.65;100724.66;20831365;28;20053;-75
2023/01/07 12:29:41;;;;;;;8.88;5.80;;;;;;;22.62;48.00;100718.66;20835435;28;20045;-76
2023/01/07 12:39:44;;;;;;;11.95;5.18;;;;;;;22.57;44.74;100711.13;20844766;28;20135;-77
2023/01/07 12:49:51;;;;;;;10.68;4.75;;;;;;;22.53;44.29;100702.59;20831501;28;20094;-76
2023/01/07 12:59:57;;;;;;;5.97;4.00;;;;;;;22.53;44.12;100693.81;20851103;28;20556;-76
2023/01/07 13:10:02;;;;;;;6.00;4.40;;;;;;;22.48;43.19;100701.28;20879525;28;20106;-76
2023/01/07 13:20:10;;;;;;;5.53;3.63;;;;;;;22.43;42.65;100685.78;20845752;28;20052;-80
2023/01/07 13:30:17;;;;;;;7.35;4.03;;;;;;;22.36;42.38;100681.91;20836089;28;20404;-75
2023/01/07 13:40:42;;;;;;;5.75;3.90;;;;;;;22.29;42.05;100686.00;20878292;28;20048;-76
2023/01/07 13:50:53;;;;;;;7.55;4.70;;;;;;;22.22;42.64;100683.00;20844522;28;20041;-75
2023/01/07 14:01:01;;;;;;;7.15;4.35;;;;;;;22.12;42.93;100688.16;20865452;28;20098;-76
2023/01/07 14:11:03;;;;;;;12.30;6.25;;;;;;;21.96;40.58;100699.03;20846866;28;20076;-76
2023/01/07 14:21:19;;;;;;;10.40;5.70;;;;;;;21.83;42.28;100699.09;20853653;28;20034;-77
2023/01/07 14:31:26;;;;;;;13.00;5.60;;;;;;;21.84;43.78;100692.06;20843615;28;20053;-77
2023/01/07 14:41:28;;;;;;;7.18;4.53;;;;;;;21.81;44.38;100692.25;20861925;28;20120;-75
2023/01/07 14:51:53;;;;;;;9.13;4.38;;;;;;;21.79;45.16;100688.91;20832655;28;20045;-76
2023/01/07 15:02:32;;;;;;;14.98;4.50;;;;;;;21.78;45.75;100692.50;20840615;28;20132;-75
2023/01/07 15:23:34;;;;;;;6.22;4.15;;;;;;;21.74;47.13;100687.47;20862530;28;20496;-75
2023/01/07 15:33:56;;;;;;;8.38;4.57;;;;;;;21.72;47.04;100684.09;20853759;28;20111;-77
2023/01/07 15:43:59;;;;;;;5.80;4.43;;;;;;;21.74;47.54;100694.53;20838681;28;20532;-77
2023/01/07 15:54:01;;;;;;;5.93;4.38;;;;;;;21.71;47.81;100700.84;20876023;28;20735;-78
2023/01/07 16:04:02;;;;;;;5.93;4.38;;;;;;;21.72;48.07;100715.72;20807396;28;20566;-75
2023/01/07 16:14:13;;;;;;;6.28;4.82;;;;;;;21.71;47.46;100714.03;20833273;28;20063;-75
2023/01/07 16:24:17;;;;;;;9.32;4.90;;;;;;;21.72;48.14;100725.44;20809117;28;20037;-74
2023/01/07 16:34:17;;;;;;;5.55;4.60;;;;;;;21.72;47.97;100725.44;20829232;28;20059;-73
2023/01/07 16:44:44;;;;;;;9.20;4.40;;;;;;;21.72;49.25;100731.53;20798183;28;20045;-73
2023/01/07 16:54:46;;;;;;;6.07;4.40;;;;;;;21.77;49.92;100733.00;20813627;28;20041;-80
2023/01/07 17:04:47;;;;;;;6.00;4.40;;;;;;;21.74;49.72;100734.91;20847193;28;20044;-77
2023/01/07 17:14:48;;;;;;;5.75;4.45;;;;;;;21.71;49.81;100732.47;20803121;28;20045;-77
2023/01/07 17:24:50;;;;;;;30.97;14.13;;;;;;;21.70;49.54;100744.00;20804618;28;20123;-80
2023/01/07 17:34:51;;;;;;;39.08;18.58;;;;;;;21.67;49.83;100749.50;20828239;28;20764;-79
2023/01/07 17:44:51;;;;;;;41.58;19.10;;;;;;;21.65;49.96;100747.91;20837649;28;20124;-78
2023/01/07 17:54:51;;;;;;;33.13;15.85;;;;;;;21.64;49.64;100754.13;20821265;28;20048;-81
2023/01/07 18:04:52;;;;;;;35.95;15.10;;;;;;;21.63;50.07;100752.44;20833191;28;20123;-78
2023/01/07 18:14:52;;;;;;;28.88;13.50;;;;;;;21.61;50.19;100749.94;20847046;28;20604;-76
2023/01/07 18:24:53;;;;;;;25.40;12.07;;;;;;;21.59;50.41;100751.84;20831464;28;20090;-78
2023/01/07 18:34:53;;;;;;;21.05;10.98;;;;;;;21.57;50.09;100759.03;20836094;28;20194;-76
2023/01/07 18:44:54;;;;;;;107.65;39.97;;;;;;;21.56;50.58;100758.19;20816225;28;20059;-76
2023/01/07 18:54:54;;;;;;;82.38;31.50;;;;;;;21.56;50.60;100762.59;20824027;28;20045;-76
2023/01/07 19:04:55;;;;;;;83.78;30.38;;;;;;;21.55;51.02;100753.81;20801532;28;20446;-76
2023/01/07 19:14:55;;;;;;;75.53;27.73;;;;;;;21.56;50.68;100744.13;20811126;28;20091;-75
2023/01/07 19:24:56;;;;;;;62.15;23.58;;;;;;;21.54;50.32;100744.22;20807163;28;20089;-75
2023/01/07 19:34:56;;;;;;;55.78;22.08;;;;;;;21.55;50.48;100745.09;20796887;28;20140;-78
2023/01/07 19:44:57;;;;;;;51.10;20.95;;;;;;;21.54;51.20;100738.13;20819434;28;20029;-75
2023/01/07 19:54:57;;;;;;;42.33;18.25;;;;;;;21.53;51.64;100732.03;20831656;28;20446;-80
2023/01/07 20:04:58;;;;;;;40.53;15.88;;;;;;;21.52;51.61;100732.13;20840130;28;20047;-80
2023/01/07 20:14:58;;;;;;;36.97;15.30;;;;;;;21.52;51.27;100719.81;20853884;28;20404;-79
2023/01/07 20:24:58;;;;;;;35.13;14.60;;;;;;;21.52;51.22;100717.19;20849733;28;20032;-75
2023/01/07 20:34:59;;;;;;;32.83;12.27;;;;;;;21.50;51.06;100700.63;20851743;28;20094;-78
2023/01/07 20:45:00;;;;;;;30.33;15.85;;;;;;;20.93;42.80;100704.75;20856686;28;20055;-77
2023/01/07 20:55:04;;;;;;;29.55;13.52;;;;;;;21.20;47.38;100707.19;20845486;28;20049;-78
2023/01/07 21:05:04;;;;;;;25.55;13.32;;;;;;;21.18;47.45;100695.06;20833883;28;20041;-77
2023/01/07 21:15:07;;;;;;;23.97;12.43;;;;;;;21.18;47.93;100687.16;20845658;28;20052;-74
2023/01/07 21:25:10;;;;;;;23.00;11.65;;;;;;;21.18;48.39;100689.81;20855793;28;20547;-74
2023/01/07 21:35:11;;;;;;;18.33;10.10;;;;;;;21.17;48.64;100680.25;20839469;28;21945;-73
2023/01/07 21:45:11;;;;;;;18.98;9.95;;;;;;;21.17;48.99;100683.72;20867209;28;20114;-73
2023/01/07 21:55:12;;;;;;;20.42;10.07;;;;;;;21.15;49.55;100669.81;20840008;28;20045;-73
2023/01/07 22:05:12;;;;;;;16.02;9.18;;;;;;;21.14;49.98;100669.94;20835948;28;20043;-76
2023/01/07 22:15:13;;;;;;;16.70;9.02;;;;;;;21.12;49.82;100664.78;20864920;28;20427;-74
2023/01/07 22:25:13;;;;;;;16.25;8.80;;;;;;;21.11;50.13;100666.56;20860629;28;20040;-73
2023/01/07 22:35:14;;;;;;;15.45;8.82;;;;;;;21.10;50.34;100664.03;20864531;28;20056;-73
2023/01/07 22:45:20;;;;;;;14.20;8.65;;;;;;;21.06;50.48;100637.09;20834337;28;20037;-74
2023/01/07 22:55:20;;;;;;;14.50;8.27;;;;;;;21.05;50.41;100616.97;20853825;28;20052;-74
2023/01/07 23:05:21;;;;;;;14.63;8.20;;;;;;;21.04;50.78;100598.66;20838502;28;20138;-76
2023/01/07 23:15:27;;;;;;;13.13;8.02;;;;;;;21.02;50.60;100593.53;20844585;28;20055;-73
2023/01/07 23:25:27;;;;;;;14.43;7.90;;;;;;;21.02;50.64;100590.91;20840778;28;20549;-75
2023/01/07 23:35:28;;;;;;;13.05;7.90;;;;;;;21.01;50.63;100596.28;20844548;28;20086;-74
2023/01/07 23:45:28;;;;;;;15.82;7.70;;;;;;;21.00;50.92;100587.53;20842729;28;20404;-74
2023/01/07 23:55:29;;;;;;;11.90;6.97;;;;;;;20.99;50.79;100585.84;20822659;28;20697;-75
